sensor_id;sensor_type;location;lat;lon;timestamp;temperature;humidity
73576;DHT22;61859;49.204;8.140;2023-05-06T00:00:33;13.00;99.90
73576;DHT22;61859;49.204;8.140;2023-05-06T00:02:59;13.00;99.90
73576;DHT22;61859;49.204;8.140;2023-05-06T00:05:25;12.90;99.90
73576;DHT22;61859;49.204;8.140;2023-05-06T00:07:51;12.90;99.90
73576;DHT22;61859;49.204;8.140;2023-05-06T00:10:17;12.80;99.90
73576;DHT22;61859;49.204;8.140;2023-05-06T00:12:42;12.80;99.90
73576;DHT22;61859;49.204;8.140;2023-05-06T00:15:08;12.70;99.90
73576;DHT22;61859;49.204;8.140;2023-05-06T00:17:34;12.70;99.90
73576;DHT22;61859;49.204;8.140;2023-05-06T00:20:00;12.70;99.90
73576;DHT22;61859;49.204;8.140;2023-05-06T00:22:25;12.70;99.90
73576;DHT22;61859;49.204;8.140;2023-05-06T00:24:51;12.70;99.90
73576;DHT22;61859;49.204;8.140;2023-05-06T00:27:16;12.70;99.90
73576;DHT22;61859;49.204;8.140;2023-05-06T00:29:42;12.70;99.90
73576;DHT22;61859;49.204;8.140;2023-05-06T00:32:07;12.70;99.90
73576;DHT22;61859;49.204;8.140;2023-05-06T00:34:33;12.70;99.90
73576;DHT22;61859;49.204;8.140;2023-05-06T00:36:58;12.70;99.90
73576;DHT22;61859;49.204;8.140;2023-05-06T00:39:24;12.70;99.90
73576;DHT22;61859;49.204;8.140;2023-05-06T00:41:51;12.70;99.90
73576;DHT22;61859;49.204;8.140;2023-05-06T00:44:16;12.70;99.90
73576;DHT22;61859;49.204;8.140;2023-05-06T00:46:42;12.60;99.90
73576;DHT22;61859;49.204;8.140;2023-05-06T00:49:08;12.70;99.90
73576;DHT22;61859;49.204;8.140;2023-05-06T00:51:34;12.70;99.90
73576;DHT22;61859;49.204;8.140;2023-05-06T00:54:00;12.70;99.90
73576;DHT22;61859;49.204;8.140;2023-05-06T00:56:26;12.80;99.90
73576;DHT22;61859;49.204;8.140;2023-05-06T00:58:53;12.80;99.90
73576;DHT22;61859;49.204;8.140;2023-05-06T01:01:19;12.80;99.90
73576;DHT22;61859;49.204;8.140;2023-05-06T01:03:47;12.80;99.90
73576;DHT22;61859;49.204;8.140;2023-05-06T01:06:18;12.70;99.90
73576;DHT22;61859;49.204;8.140;2023-05-06T01:08:53;12.80;99.90
73576;DHT22;61859;49.204;8.140;2023-05-06T01:14:38;12.70;99.90
73576;DHT22;61859;49.204;8.140;2023-05-06T01:17:09;12.70;99.90
73576;DHT22;61859;49.204;8.140;2023-05-06T01:19:39;12.70;99.90
73576;DHT22;61859;49.204;8.140;2023-05-06T01:22:07;12.70;99.90
73576;DHT22;61859;49.204;8.140;2023-05-06T01:24:41;12.70;99.90
73576;DHT22;61859;49.204;8.140;2023-05-06T01:27:09;12.80;99.90
73576;DHT22;61859;49.204;8.140;2023-05-06T01:29:36;12.80;99.90
73576;DHT22;61859;49.204;8.140;2023-05-06T01:37:47;12.90;99.90
73576;DHT22;61859;49.204;8.140;2023-05-06T01:40:17;12.80;99.90
73576;DHT22;61859;49.204;8.140;2023-05-06T01:42:46;12.90;99.90
73576;DHT22;61859;49.204;8.140;2023-05-06T01:45:12;12.90;99.90
73576;DHT22;61859;49.204;8.140;2023-05-06T01:47:40;12.90;99.90
73576;DHT22;61859;49.204;8.140;2023-05-06T01:50:06;12.80;99.90
73576;DHT22;61859;49.204;8.140;2023-05-06T01:52:32;12.80;99.90
73576;DHT22;61859;49.204;8.140;2023-05-06T01:54:57;12.80;99.90
73576;DHT22;61859;49.204;8.140;2023-05-06T01:57:23;12.80;99.90
73576;DHT22;61859;49.204;8.140;2023-05-06T01:59:49;12.70;99.90
73576;DHT22;61859;49.204;8.140;2023-05-06T02:02:14;12.70;99.90
73576;DHT22;61859;49.204;8.140;2023-05-06T02:04:40;12.60;99.90
73576;DHT22;61859;49.204;8.140;2023-05-06T02:07:05;12.60;99.90
73576;DHT22;61859;49.204;8.140;2023-05-06T02:09:31;12.60;99.90
73576;DHT22;61859;49.204;8.140;2023-05-06T02:11:57;12.70;99.90
73576;DHT22;61859;49.204;8.140;2023-05-06T02:14:22;12.60;99.90
73576;DHT22;61859;49.204;8.140;2023-05-06T02:16:48;12.60;99.90
73576;DHT22;61859;49.204;8.140;2023-05-06T02:19:13;12.60;99.90
73576;DHT22;61859;49.204;8.140;2023-05-06T02:21:39;12.70;99.90
73576;DHT22;61859;49.204;8.140;2023-05-06T02:24:05;12.70;99.90
73576;DHT22;61859;49.204;8.140;2023-05-06T02:26:31;12.70;99.90
73576;DHT22;61859;49.204;8.140;2023-05-06T02:28:56;12.70;99.90
73576;DHT22;61859;49.204;8.140;2023-05-06T02:31:22;12.60;99.90
73576;DHT22;61859;49.204;8.140;2023-05-06T02:33:47;12.60;99.90
73576;DHT22;61859;49.204;8.140;2023-05-06T02:36:13;12.60;99.90
73576;DHT22;61859;49.204;8.140;2023-05-06T02:38:38;12.60;99.90
73576;DHT22;61859;49.204;8.140;2023-05-06T02:41:04;12.50;99.90
73576;DHT22;61859;49.204;8.140;2023-05-06T02:43:29;12.60;99.90
73576;DHT22;61859;49.204;8.140;2023-05-06T02:45:55;12.50;99.90
73576;DHT22;61859;49.204;8.140;2023-05-06T02:48:20;12.50;99.90
73576;DHT22;61859;49.204;8.140;2023-05-06T02:50:46;12.40;99.90
73576;DHT22;61859;49.204;8.140;2023-05-06T02:53:11;12.40;99.90
73576;DHT22;61859;49.204;8.140;2023-05-06T02:55:37;12.30;99.90
73576;DHT22;61859;49.204;8.140;2023-05-06T02:58:03;12.40;99.90
73576;DHT22;61859;49.204;8.140;2023-05-06T03:00:28;12.40;99.90
73576;DHT22;61859;49.204;8.140;2023-05-06T03:02:54;12.40;99.90
73576;DHT22;61859;49.204;8.140;2023-05-06T03:05:20;12.30;99.90
73576;DHT22;61859;49.204;8.140;2023-05-06T03:07:45;12.40;99.90
73576;DHT22;61859;49.204;8.140;2023-05-06T03:10:11;12.30;99.90
73576;DHT22;61859;49.204;8.140;2023-05-06T03:12:36;12.30;99.90
73576;DHT22;61859;49.204;8.140;2023-05-06T03:15:02;12.30;99.90
73576;DHT22;61859;49.204;8.140;2023-05-06T03:17:28;12.30;99.90
73576;DHT22;61859;49.204;8.140;2023-05-06T03:19:53;12.30;99.90
73576;DHT22;61859;49.204;8.140;2023-05-06T03:22:19;12.30;99.90
73576;DHT22;61859;49.204;8.140;2023-05-06T03:24:44;12.30;99.90
73576;DHT22;61859;49.204;8.140;2023-05-06T03:27:10;12.30;99.90
73576;DHT22;61859;49.204;8.140;2023-05-06T03:29:35;12.30;99.90
73576;DHT22;61859;49.204;8.140;2023-05-06T03:32:02;12.20;99.90
73576;DHT22;61859;49.204;8.140;2023-05-06T03:34:28;12.20;99.90
73576;DHT22;61859;49.204;8.140;2023-05-06T03:36:54;12.20;99.90
73576;DHT22;61859;49.204;8.140;2023-05-06T03:39:19;12.20;99.90
73576;DHT22;61859;49.204;8.140;2023-05-06T03:41:45;12.10;99.90
73576;DHT22;61859;49.204;8.140;2023-05-06T03:44:10;12.20;99.90
73576;DHT22;61859;49.204;8.140;2023-05-06T03:46:36;12.10;99.90
73576;DHT22;61859;49.204;8.140;2023-05-06T03:49:03;12.10;99.90
73576;DHT22;61859;49.204;8.140;2023-05-06T03:51:29;12.20;99.90
73576;DHT22;61859;49.204;8.140;2023-05-06T03:53:55;12.20;99.90
73576;DHT22;61859;49.204;8.140;2023-05-06T03:56:21;12.20;99.90
73576;DHT22;61859;49.204;8.140;2023-05-06T03:58:47;12.30;99.90
73576;DHT22;61859;49.204;8.140;2023-05-06T04:01:13;12.20;99.90
73576;DHT22;61859;49.204;8.140;2023-05-06T04:03:38;12.20;99.90
73576;DHT22;61859;49.204;8.140;2023-05-06T04:06:04;12.10;99.90
73576;DHT22;61859;49.204;8.140;2023-05-06T04:08:30;12.10;99.90
73576;DHT22;61859;49.204;8.140;2023-05-06T04:10:56;12.20;99.90
73576;DHT22;61859;49.204;8.140;2023-05-06T04:13:22;12.10;99.90
73576;DHT22;61859;49.204;8.140;2023-05-06T04:15:48;12.10;99.90
73576;DHT22;61859;49.204;8.140;2023-05-06T04:18:14;12.00;99.90
73576;DHT22;61859;49.204;8.140;2023-05-06T04:20:46;12.10;99.90
73576;DHT22;61859;49.204;8.140;2023-05-06T04:23:13;12.10;99.90
73576;DHT22;61859;49.204;8.140;2023-05-06T04:25:38;12.20;99.90
73576;DHT22;61859;49.204;8.140;2023-05-06T04:28:09;12.10;99.90
73576;DHT22;61859;49.204;8.140;2023-05-06T04:30:36;12.00;99.90
73576;DHT22;61859;49.204;8.140;2023-05-06T04:33:02;12.10;99.90
73576;DHT22;61859;49.204;8.140;2023-05-06T04:35:28;12.10;99.90
73576;DHT22;61859;49.204;8.140;2023-05-06T04:37:54;12.00;99.90
73576;DHT22;61859;49.204;8.140;2023-05-06T04:40:21;12.00;99.90
73576;DHT22;61859;49.204;8.140;2023-05-06T04:42:47;12.00;99.90
73576;DHT22;61859;49.204;8.140;2023-05-06T04:45:12;12.10;99.90
73576;DHT22;61859;49.204;8.140;2023-05-06T04:47:38;12.10;99.90
73576;DHT22;61859;49.204;8.140;2023-05-06T04:50:03;12.10;99.90
73576;DHT22;61859;49.204;8.140;2023-05-06T04:52:29;12.20;99.90
73576;DHT22;61859;49.204;8.140;2023-05-06T04:54:54;12.40;99.90
73576;DHT22;61859;49.204;8.140;2023-05-06T04:57:20;12.50;99.90
73576;DHT22;61859;49.204;8.140;2023-05-06T04:59:45;12.50;99.90
73576;DHT22;61859;49.204;8.140;2023-05-06T05:02:11;12.50;99.90
73576;DHT22;61859;49.204;8.140;2023-05-06T05:04:37;12.60;99.90
73576;DHT22;61859;49.204;8.140;2023-05-06T05:07:02;12.70;99.90
73576;DHT22;61859;49.204;8.140;2023-05-06T05:09:28;12.80;99.90
73576;DHT22;61859;49.204;8.140;2023-05-06T05:11:53;12.90;99.90
73576;DHT22;61859;49.204;8.140;2023-05-06T05:14:19;12.90;99.90
73576;DHT22;61859;49.204;8.140;2023-05-06T05:16:44;13.00;99.90
73576;DHT22;61859;49.204;8.140;2023-05-06T05:19:10;13.00;99.90
73576;DHT22;61859;49.204;8.140;2023-05-06T05:21:35;13.10;99.90
73576;DHT22;61859;49.204;8.140;2023-05-06T05:24:01;13.20;99.90
73576;DHT22;61859;49.204;8.140;2023-05-06T05:26:26;13.40;99.90
73576;DHT22;61859;49.204;8.140;2023-05-06T05:28:52;13.40;99.90
73576;DHT22;61859;49.204;8.140;2023-05-06T05:31:17;13.40;99.90
73576;DHT22;61859;49.204;8.140;2023-05-06T05:33:43;13.50;99.90
73576;DHT22;61859;49.204;8.140;2023-05-06T05:36:08;13.50;99.80
73576;DHT22;61859;49.204;8.140;2023-05-06T05:38:36;13.60;99.90
73576;DHT22;61859;49.204;8.140;2023-05-06T05:41:02;13.80;99.90
73576;DHT22;61859;49.204;8.140;2023-05-06T05:43:27;13.90;99.30
73576;DHT22;61859;49.204;8.140;2023-05-06T05:45:53;14.00;99.10
73576;DHT22;61859;49.204;8.140;2023-05-06T05:48:19;14.00;98.10
73576;DHT22;61859;49.204;8.140;2023-05-06T05:50:45;14.20;97.80
73576;DHT22;61859;49.204;8.140;2023-05-06T05:53:11;14.30;96.90
73576;DHT22;61859;49.204;8.140;2023-05-06T05:55:36;14.30;96.40
73576;DHT22;61859;49.204;8.140;2023-05-06T05:58:02;14.30;96.30
73576;DHT22;61859;49.204;8.140;2023-05-06T06:00:28;14.30;96.50
73576;DHT22;61859;49.204;8.140;2023-05-06T06:02:53;14.50;97.00
73576;DHT22;61859;49.204;8.140;2023-05-06T06:05:19;14.60;96.30
73576;DHT22;61859;49.204;8.140;2023-05-06T06:07:44;14.60;96.40
73576;DHT22;61859;49.204;8.140;2023-05-06T06:10:10;14.70;96.60
73576;DHT22;61859;49.204;8.140;2023-05-06T06:12:37;14.80;96.90
73576;DHT22;61859;49.204;8.140;2023-05-06T06:15:03;14.90;94.70
73576;DHT22;61859;49.204;8.140;2023-05-06T06:17:29;15.00;94.60
73576;DHT22;61859;49.204;8.140;2023-05-06T06:19:57;15.10;94.70
73576;DHT22;61859;49.204;8.140;2023-05-06T06:22:23;15.20;94.30
73576;DHT22;61859;49.204;8.140;2023-05-06T06:24:49;15.40;94.00
73576;DHT22;61859;49.204;8.140;2023-05-06T06:27:15;15.50;92.20
73576;DHT22;61859;49.204;8.140;2023-05-06T06:29:41;15.50;92.70
73576;DHT22;61859;49.204;8.140;2023-05-06T06:32:06;15.80;92.90
73576;DHT22;61859;49.204;8.140;2023-05-06T06:34:32;15.90;91.20
73576;DHT22;61859;49.204;8.140;2023-05-06T06:36:58;16.00;91.50
73576;DHT22;61859;49.204;8.140;2023-05-06T06:39:23;16.10;90.40
73576;DHT22;61859;49.204;8.140;2023-05-06T06:41:49;16.40;90.60
73576;DHT22;61859;49.204;8.140;2023-05-06T06:44:14;16.50;89.60
73576;DHT22;61859;49.204;8.140;2023-05-06T06:46:40;16.60;89.40
73576;DHT22;61859;49.204;8.140;2023-05-06T06:49:06;16.70;87.70
73576;DHT22;61859;49.204;8.140;2023-05-06T06:51:31;16.80;87.60
73576;DHT22;61859;49.204;8.140;2023-05-06T06:53:57;16.90;87.10
73576;DHT22;61859;49.204;8.140;2023-05-06T06:56:22;16.90;85.80
73576;DHT22;61859;49.204;8.140;2023-05-06T06:58:48;17.10;85.20
73576;DHT22;61859;49.204;8.140;2023-05-06T07:01:13;17.40;85.10
73576;DHT22;61859;49.204;8.140;2023-05-06T07:03:39;17.60;84.90
73576;DHT22;61859;49.204;8.140;2023-05-06T07:06:05;17.90;83.10
73576;DHT22;61859;49.204;8.140;2023-05-06T07:08:30;18.20;79.70
73576;DHT22;61859;49.204;8.140;2023-05-06T07:10:56;18.40;81.10
73576;DHT22;61859;49.204;8.140;2023-05-06T07:13:21;18.50;81.10
73576;DHT22;61859;49.204;8.140;2023-05-06T07:15:48;18.60;80.10
73576;DHT22;61859;49.204;8.140;2023-05-06T07:18:13;18.70;80.20
73576;DHT22;61859;49.204;8.140;2023-05-06T07:20:39;18.80;79.90
73576;DHT22;61859;49.204;8.140;2023-05-06T07:23:04;18.90;79.30
73576;DHT22;61859;49.204;8.140;2023-05-06T07:25:30;19.10;78.40
73576;DHT22;61859;49.204;8.140;2023-05-06T07:27:56;19.10;79.20
73576;DHT22;61859;49.204;8.140;2023-05-06T07:30:22;19.30;78.80
73576;DHT22;61859;49.204;8.140;2023-05-06T07:32:47;19.50;78.70
73576;DHT22;61859;49.204;8.140;2023-05-06T07:35:13;19.70;78.60
73576;DHT22;61859;49.204;8.140;2023-05-06T07:37:38;19.80;77.80
73576;DHT22;61859;49.204;8.140;2023-05-06T07:40:05;20.00;75.70
73576;DHT22;61859;49.204;8.140;2023-05-06T07:42:31;20.10;75.20
73576;DHT22;61859;49.204;8.140;2023-05-06T07:44:57;20.10;73.00
73576;DHT22;61859;49.204;8.140;2023-05-06T07:47:30;20.20;72.40
73576;DHT22;61859;49.204;8.140;2023-05-06T07:49:56;20.40;72.30
73576;DHT22;61859;49.204;8.140;2023-05-06T07:52:23;20.50;73.10
73576;DHT22;61859;49.204;8.140;2023-05-06T07:54:48;20.70;72.70
73576;DHT22;61859;49.204;8.140;2023-05-06T07:57:14;20.80;70.10
73576;DHT22;61859;49.204;8.140;2023-05-06T07:59:42;21.00;70.90
73576;DHT22;61859;49.204;8.140;2023-05-06T08:02:08;21.10;69.80
73576;DHT22;61859;49.204;8.140;2023-05-06T08:04:33;21.20;68.80
73576;DHT22;61859;49.204;8.140;2023-05-06T08:06:59;21.40;68.70
73576;DHT22;61859;49.204;8.140;2023-05-06T08:09:25;21.60;68.40
73576;DHT22;61859;49.204;8.140;2023-05-06T08:11:50;21.80;67.80
73576;DHT22;61859;49.204;8.140;2023-05-06T08:14:16;21.80;66.80
73576;DHT22;61859;49.204;8.140;2023-05-06T08:16:41;21.90;66.00
73576;DHT22;61859;49.204;8.140;2023-05-06T08:19:07;22.00;64.40
73576;DHT22;61859;49.204;8.140;2023-05-06T08:21:32;22.00;64.20
73576;DHT22;61859;49.204;8.140;2023-05-06T08:23:58;22.00;63.80
73576;DHT22;61859;49.204;8.140;2023-05-06T08:26:23;22.10;64.10
73576;DHT22;61859;49.204;8.140;2023-05-06T08:28:49;22.30;63.10
73576;DHT22;61859;49.204;8.140;2023-05-06T08:31:15;22.30;63.40
73576;DHT22;61859;49.204;8.140;2023-05-06T08:33:41;22.50;63.90
73576;DHT22;61859;49.204;8.140;2023-05-06T08:36:06;22.70;63.50
73576;DHT22;61859;49.204;8.140;2023-05-06T08:38:32;22.80;63.10
73576;DHT22;61859;49.204;8.140;2023-05-06T08:40:59;22.60;62.00
73576;DHT22;61859;49.204;8.140;2023-05-06T08:43:27;22.60;61.00
73576;DHT22;61859;49.204;8.140;2023-05-06T08:45:54;22.80;61.40
73576;DHT22;61859;49.204;8.140;2023-05-06T08:48:19;23.00;63.00
73576;DHT22;61859;49.204;8.140;2023-05-06T08:50:47;23.20;61.40
73576;DHT22;61859;49.204;8.140;2023-05-06T08:53:13;23.20;61.10
73576;DHT22;61859;49.204;8.140;2023-05-06T08:55:41;23.30;60.10
73576;DHT22;61859;49.204;8.140;2023-05-06T08:58:07;23.50;60.60
73576;DHT22;61859;49.204;8.140;2023-05-06T09:00:33;23.70;59.40
73576;DHT22;61859;49.204;8.140;2023-05-06T09:02:58;23.90;60.30
73576;DHT22;61859;49.204;8.140;2023-05-06T09:05:24;24.10;59.80
73576;DHT22;61859;49.204;8.140;2023-05-06T09:07:49;24.10;56.80
73576;DHT22;61859;49.204;8.140;2023-05-06T09:10:15;24.20;56.20
73576;DHT22;61859;49.204;8.140;2023-05-06T09:12:43;24.20;56.80
73576;DHT22;61859;49.204;8.140;2023-05-06T09:15:09;24.20;57.20
73576;DHT22;61859;49.204;8.140;2023-05-06T09:17:35;24.10;57.00
73576;DHT22;61859;49.204;8.140;2023-05-06T09:20:01;24.10;57.90
73576;DHT22;61859;49.204;8.140;2023-05-06T09:22:28;24.30;58.70
73576;DHT22;61859;49.204;8.140;2023-05-06T09:24:55;24.50;54.30
73576;DHT22;61859;49.204;8.140;2023-05-06T09:27:26;24.50;54.00
73576;DHT22;61859;49.204;8.140;2023-05-06T09:30:03;24.50;54.60
73576;DHT22;61859;49.204;8.140;2023-05-06T09:32:33;24.30;55.50
73576;DHT22;61859;49.204;8.140;2023-05-06T09:34:58;24.40;54.30
73576;DHT22;61859;49.204;8.140;2023-05-06T09:37:24;24.50;51.80
73576;DHT22;61859;49.204;8.140;2023-05-06T09:39:57;24.50;51.70
73576;DHT22;61859;49.204;8.140;2023-05-06T09:42:24;24.70;53.10
73576;DHT22;61859;49.204;8.140;2023-05-06T09:44:58;25.00;52.80
73576;DHT22;61859;49.204;8.140;2023-05-06T09:47:26;25.40;53.10
73576;DHT22;61859;49.204;8.140;2023-05-06T09:49:58;25.60;50.40
73576;DHT22;61859;49.204;8.140;2023-05-06T09:52:28;25.30;49.40
73576;DHT22;61859;49.204;8.140;2023-05-06T09:54:54;25.20;51.90
73576;DHT22;61859;49.204;8.140;2023-05-06T09:57:21;25.20;52.00
73576;DHT22;61859;49.204;8.140;2023-05-06T09:59:47;25.10;51.80
73576;DHT22;61859;49.204;8.140;2023-05-06T10:02:13;25.10;52.00
73576;DHT22;61859;49.204;8.140;2023-05-06T10:04:40;25.10;51.70
73576;DHT22;61859;49.204;8.140;2023-05-06T10:07:07;24.80;52.40
73576;DHT22;61859;49.204;8.140;2023-05-06T10:09:34;24.90;52.80
73576;DHT22;61859;49.204;8.140;2023-05-06T10:12:01;25.10;51.50
73576;DHT22;61859;49.204;8.140;2023-05-06T10:14:27;25.40;51.00
73576;DHT22;61859;49.204;8.140;2023-05-06T10:16:53;25.90;49.80
73576;DHT22;61859;49.204;8.140;2023-05-06T10:19:22;26.40;50.50
73576;DHT22;61859;49.204;8.140;2023-05-06T10:21:58;26.90;49.00
73576;DHT22;61859;49.204;8.140;2023-05-06T10:24:32;27.30;48.50
73576;DHT22;61859;49.204;8.140;2023-05-06T10:27:00;27.60;46.70
73576;DHT22;61859;49.204;8.140;2023-05-06T10:29:28;27.50;47.70
73576;DHT22;61859;49.204;8.140;2023-05-06T10:31:55;27.40;48.30
73576;DHT22;61859;49.204;8.140;2023-05-06T10:34:21;27.30;46.80
73576;DHT22;61859;49.204;8.140;2023-05-06T10:36:51;27.10;48.00
73576;DHT22;61859;49.204;8.140;2023-05-06T10:39:18;27.10;47.20
73576;DHT22;61859;49.204;8.140;2023-05-06T10:41:44;27.30;47.00
73576;DHT22;61859;49.204;8.140;2023-05-06T10:44:11;27.70;46.70
73576;DHT22;61859;49.204;8.140;2023-05-06T10:46:56;27.60;46.60
73576;DHT22;61859;49.204;8.140;2023-05-06T10:49:22;27.90;46.80
73576;DHT22;61859;49.204;8.140;2023-05-06T10:52:08;28.20;45.70
73576;DHT22;61859;49.204;8.140;2023-05-06T10:54:46;28.40;44.60
73576;DHT22;61859;49.204;8.140;2023-05-06T10:57:13;28.40;43.80
73576;DHT22;61859;49.204;8.140;2023-05-06T10:59:44;28.70;44.00
73576;DHT22;61859;49.204;8.140;2023-05-06T11:02:11;29.00;43.00
73576;DHT22;61859;49.204;8.140;2023-05-06T11:04:38;29.40;43.40
73576;DHT22;61859;49.204;8.140;2023-05-06T11:07:11;29.60;41.60
73576;DHT22;61859;49.204;8.140;2023-05-06T11:09:59;30.10;42.20
73576;DHT22;61859;49.204;8.140;2023-05-06T11:12:42;30.40;41.30
73576;DHT22;61859;49.204;8.140;2023-05-06T11:15:24;30.50;41.70
73576;DHT22;61859;49.204;8.140;2023-05-06T11:17:52;30.90;40.00
73576;DHT22;61859;49.204;8.140;2023-05-06T11:20:25;30.80;41.00
73576;DHT22;61859;49.204;8.140;2023-05-06T11:22:51;31.10;39.70
73576;DHT22;61859;49.204;8.140;2023-05-06T11:25:39;31.50;40.60
73576;DHT22;61859;49.204;8.140;2023-05-06T11:28:08;31.90;38.80
73576;DHT22;61859;49.204;8.140;2023-05-06T11:30:35;31.80;38.30
73576;DHT22;61859;49.204;8.140;2023-05-06T11:33:03;31.70;38.80
73576;DHT22;61859;49.204;8.140;2023-05-06T11:35:36;31.50;38.10
73576;DHT22;61859;49.204;8.140;2023-05-06T11:38:02;31.50;39.30
73576;DHT22;61859;49.204;8.140;2023-05-06T11:40:29;31.50;38.40
73576;DHT22;61859;49.204;8.140;2023-05-06T11:42:55;31.40;39.00
73576;DHT22;61859;49.204;8.140;2023-05-06T11:45:40;31.50;38.70
73576;DHT22;61859;49.204;8.140;2023-05-06T11:48:06;30.70;38.50
73576;DHT22;61859;49.204;8.140;2023-05-06T11:50:31;30.40;40.20
73576;DHT22;61859;49.204;8.140;2023-05-06T11:52:57;30.30;39.40
73576;DHT22;61859;49.204;8.140;2023-05-06T11:55:23;30.70;39.00
73576;DHT22;61859;49.204;8.140;2023-05-06T11:57:49;31.20;39.70
73576;DHT22;61859;49.204;8.140;2023-05-06T12:00:16;32.00;39.20
73576;DHT22;61859;49.204;8.140;2023-05-06T12:02:43;32.20;36.80
73576;DHT22;61859;49.204;8.140;2023-05-06T12:05:08;32.50;37.50
73576;DHT22;61859;49.204;8.140;2023-05-06T12:07:34;33.00;37.40
73576;DHT22;61859;49.204;8.140;2023-05-06T12:09:59;33.30;37.00
73576;DHT22;61859;49.204;8.140;2023-05-06T12:12:29;33.50;36.10
73576;DHT22;61859;49.204;8.140;2023-05-06T12:14:56;33.30;36.90
73576;DHT22;61859;49.204;8.140;2023-05-06T12:17:22;33.30;36.50
73576;DHT22;61859;49.204;8.140;2023-05-06T12:19:49;33.30;36.20
73576;DHT22;61859;49.204;8.140;2023-05-06T12:22:19;33.60;36.00
73576;DHT22;61859;49.204;8.140;2023-05-06T12:24:46;34.00;36.20
73576;DHT22;61859;49.204;8.140;2023-05-06T12:27:11;34.10;35.20
73576;DHT22;61859;49.204;8.140;2023-05-06T12:29:37;34.50;34.60
73576;DHT22;61859;49.204;8.140;2023-05-06T12:32:10;34.00;34.70
73576;DHT22;61859;49.204;8.140;2023-05-06T12:34:40;33.50;35.40
73576;DHT22;61859;49.204;8.140;2023-05-06T12:37:06;33.50;35.70
73576;DHT22;61859;49.204;8.140;2023-05-06T12:39:37;33.50;36.50
73576;DHT22;61859;49.204;8.140;2023-05-06T12:42:03;33.60;35.30
73576;DHT22;61859;49.204;8.140;2023-05-06T12:44:38;33.80;36.30
73576;DHT22;61859;49.204;8.140;2023-05-06T12:47:06;33.80;35.60
73576;DHT22;61859;49.204;8.140;2023-05-06T12:49:48;33.30;36.20
73576;DHT22;61859;49.204;8.140;2023-05-06T12:52:15;33.10;36.60
73576;DHT22;61859;49.204;8.140;2023-05-06T12:54:41;33.30;35.30
73576;DHT22;61859;49.204;8.140;2023-05-06T12:57:06;33.50;36.80
73576;DHT22;61859;49.204;8.140;2023-05-06T12:59:33;33.80;36.00
73576;DHT22;61859;49.204;8.140;2023-05-06T13:01:59;34.10;34.90
73576;DHT22;61859;49.204;8.140;2023-05-06T13:04:25;34.10;34.60
73576;DHT22;61859;49.204;8.140;2023-05-06T13:06:51;34.20;35.20
73576;DHT22;61859;49.204;8.140;2023-05-06T13:09:16;33.90;35.10
73576;DHT22;61859;49.204;8.140;2023-05-06T13:11:42;34.20;35.00
73576;DHT22;61859;49.204;8.140;2023-05-06T13:14:08;34.00;34.40
73576;DHT22;61859;49.204;8.140;2023-05-06T13:16:34;34.00;34.00
73576;DHT22;61859;49.204;8.140;2023-05-06T13:19:00;34.00;33.30
73576;DHT22;61859;49.204;8.140;2023-05-06T13:21:25;34.00;34.40
73576;DHT22;61859;49.204;8.140;2023-05-06T13:23:51;34.20;34.30
73576;DHT22;61859;49.204;8.140;2023-05-06T13:26:17;34.40;33.20
73576;DHT22;61859;49.204;8.140;2023-05-06T13:28:43;34.00;33.40
73576;DHT22;61859;49.204;8.140;2023-05-06T13:31:08;33.40;33.50
73576;DHT22;61859;49.204;8.140;2023-05-06T13:33:34;32.60;35.40
73576;DHT22;61859;49.204;8.140;2023-05-06T13:36:00;31.90;37.30
73576;DHT22;61859;49.204;8.140;2023-05-06T13:38:25;31.50;36.70
73576;DHT22;61859;49.204;8.140;2023-05-06T13:40:52;31.40;35.70
73576;DHT22;61859;49.204;8.140;2023-05-06T13:43:18;32.00;37.10
73576;DHT22;61859;49.204;8.140;2023-05-06T13:45:44;33.00;36.40
73576;DHT22;61859;49.204;8.140;2023-05-06T13:48:11;34.00;34.90
73576;DHT22;61859;49.204;8.140;2023-05-06T13:50:36;34.50;32.90
73576;DHT22;61859;49.204;8.140;2023-05-06T13:53:03;34.90;33.30
73576;DHT22;61859;49.204;8.140;2023-05-06T13:55:28;35.10;32.00
73576;DHT22;61859;49.204;8.140;2023-05-06T13:57:54;35.40;32.30
73576;DHT22;61859;49.204;8.140;2023-05-06T14:00:20;35.50;32.00
73576;DHT22;61859;49.204;8.140;2023-05-06T14:02:45;35.30;31.70
73576;DHT22;61859;49.204;8.140;2023-05-06T14:05:11;35.20;32.20
73576;DHT22;61859;49.204;8.140;2023-05-06T14:07:36;35.40;32.40
73576;DHT22;61859;49.204;8.140;2023-05-06T14:10:02;34.90;32.20
73576;DHT22;61859;49.204;8.140;2023-05-06T14:12:28;34.50;31.50
73576;DHT22;61859;49.204;8.140;2023-05-06T14:14:53;34.90;32.10
73576;DHT22;61859;49.204;8.140;2023-05-06T14:17:19;34.90;31.60
73576;DHT22;61859;49.204;8.140;2023-05-06T14:19:44;34.70;31.50
73576;DHT22;61859;49.204;8.140;2023-05-06T14:22:10;35.20;31.50
73576;DHT22;61859;49.204;8.140;2023-05-06T14:24:36;35.10;31.40
73576;DHT22;61859;49.204;8.140;2023-05-06T14:27:01;35.00;32.30
73576;DHT22;61859;49.204;8.140;2023-05-06T14:29:28;35.00;32.00
73576;DHT22;61859;49.204;8.140;2023-05-06T14:31:53;34.90;30.80
73576;DHT22;61859;49.204;8.140;2023-05-06T14:34:19;34.80;31.20
73576;DHT22;61859;49.204;8.140;2023-05-06T14:36:45;34.50;31.40
73576;DHT22;61859;49.204;8.140;2023-05-06T14:39:11;34.50;32.00
73576;DHT22;61859;49.204;8.140;2023-05-06T14:41:36;34.50;31.60
73576;DHT22;61859;49.204;8.140;2023-05-06T14:44:01;34.50;31.80
73576;DHT22;61859;49.204;8.140;2023-05-06T14:46:27;34.60;31.60
73576;DHT22;61859;49.204;8.140;2023-05-06T14:48:52;34.50;30.80
73576;DHT22;61859;49.204;8.140;2023-05-06T14:51:18;34.20;31.60
73576;DHT22;61859;49.204;8.140;2023-05-06T14:53:44;33.80;31.70
73576;DHT22;61859;49.204;8.140;2023-05-06T14:56:11;33.50;31.90
73576;DHT22;61859;49.204;8.140;2023-05-06T14:58:36;33.10;32.60
73576;DHT22;61859;49.204;8.140;2023-05-06T15:01:03;32.90;33.00
73576;DHT22;61859;49.204;8.140;2023-05-06T15:03:29;32.60;32.40
73576;DHT22;61859;49.204;8.140;2023-05-06T15:05:55;32.60;33.40
73576;DHT22;61859;49.204;8.140;2023-05-06T15:08:20;32.60;31.90
73576;DHT22;61859;49.204;8.140;2023-05-06T15:10:49;32.10;32.10
73576;DHT22;61859;49.204;8.140;2023-05-06T15:13:15;31.70;32.80
73576;DHT22;61859;49.204;8.140;2023-05-06T15:15:41;31.30;33.60
73576;DHT22;61859;49.204;8.140;2023-05-06T15:18:06;31.20;33.30
73576;DHT22;61859;49.204;8.140;2023-05-06T15:20:32;31.30;33.40
73576;DHT22;61859;49.204;8.140;2023-05-06T15:22:57;31.50;33.00
73576;DHT22;61859;49.204;8.140;2023-05-06T15:25:23;31.70;33.00
73576;DHT22;61859;49.204;8.140;2023-05-06T15:27:49;31.60;32.20
73576;DHT22;61859;49.204;8.140;2023-05-06T15:30:15;31.80;33.50
73576;DHT22;61859;49.204;8.140;2023-05-06T15:32:41;31.70;32.30
73576;DHT22;61859;49.204;8.140;2023-05-06T15:35:06;31.70;32.20